Time;durP1;ratioP1;P1;durP2;ratioP2;P2;SDS_P1;SDS_P2;PMS_P1;PMS_P2;Temp;Humidity;BMP_temperature;BMP_pressure;BME280_temperature;BME280_humidity;BME280_pressure;Samples;Min_cycle;Max_cycle;Signal;HPM_P1;HPM_P2
2023/01/28 00:01:15;;;;;;;11.70;5.72;;;18.40;66.30;;;;;;4495950;31;20225;-65
2023/01/28 00:03:41;;;;;;;12.27;5.78;;;18.40;66.20;;;;;;4495306;31;20185;-65
2023/01/28 00:06:10;;;;;;;11.27;6.20;;;18.40;66.20;;;;;;4496676;31;20115;-65
2023/01/28 00:08:37;;;;;;;10.65;5.50;;;18.40;66.20;;;;;;4495832;31;20198;-65
2023/01/28 00:11:04;;;;;;;10.38;5.47;;;18.40;66.20;;;;;;4498948;31;20151;-65
2023/01/28 00:13:31;;;;;;;12.45;5.97;;;18.40;66.20;;;;;;4490730;31;20120;-65
2023/01/28 00:15:59;;;;;;;10.55;5.75;;;18.40;66.20;;;;;;4497680;31;20270;-64
2023/01/28 00:18:31;;;;;;;12.75;6.18;;;18.30;66.30;;;;;;4497137;31;20132;-64
2023/01/28 00:21:02;;;;;;;11.15;5.72;;;18.30;66.20;;;;;;4497673;31;20182;-65
2023/01/28 00:23:30;;;;;;;9.73;5.57;;;18.30;66.20;;;;;;4498654;31;20191;-65
2023/01/28 00:26:00;;;;;;;12.55;6.03;;;18.30;66.20;;;;;;4497103;31;20586;-65
2023/01/28 00:28:26;;;;;;;11.38;5.40;;;18.30;66.30;;;;;;4498845;31;20706;-65
2023/01/28 00:30:52;;;;;;;10.07;5.70;;;18.30;66.20;;;;;;4496881;31;20147;-65
2023/01/28 00:33:18;;;;;;;10.23;5.50;;;18.30;66.30;;;;;;4496998;31;20113;-65
2023/01/28 00:35:45;;;;;;;11.30;5.50;;;18.30;66.20;;;;;;4498469;31;20092;-65
2023/01/28 00:38:11;;;;;;;11.77;5.32;;;18.20;66.20;;;;;;4496088;31;20135;-65
2023/01/28 00:40:37;;;;;;;9.20;5.43;;;18.20;66.20;;;;;;4497487;31;20443;-64
2023/01/28 00:43:03;;;;;;;10.95;5.18;;;18.20;67.00;;;;;;4496648;31;20163;-65
2023/01/28 00:45:29;;;;;;;10.85;5.43;;;18.20;66.10;;;;;;4498452;31;20209;-64
2023/01/28 00:47:55;;;;;;;9.38;5.18;;;18.20;66.20;;;;;;4497230;31;20181;-64
2023/01/28 00:50:20;;;;;;;9.00;4.65;;;18.20;66.20;;;;;;4481885;31;20187;-64
2023/01/28 00:52:47;;;;;;;10.23;4.95;;;18.20;66.20;;;;;;4497829;31;20475;-65
2023/01/28 00:55:13;;;;;;;10.05;5.28;;;18.20;66.20;;;;;;4496138;31;20128;-65
2023/01/28 00:57:39;;;;;;;11.68;5.55;;;18.20;66.20;;;;;;4498166;31;20258;-65
2023/01/28 01:00:06;;;;;;;10.77;5.25;;;18.20;66.20;;;;;;4487193;31;20125;-65
2023/01/28 01:02:32;;;;;;;10.85;5.13;;;18.10;66.10;;;;;;4492047;31;20112;-64
2023/01/28 01:04:58;;;;;;;9.82;4.93;;;18.10;66.20;;;;;;4492972;31;20125;-64
2023/01/28 01:07:42;;;;;;;8.85;4.95;;;18.10;66.20;;;;;;4503416;31;20490;-64
2023/01/28 01:10:14;;;;;;;9.30;5.05;;;18.10;66.10;;;;;;4497774;31;20134;-65
2023/01/28 01:12:40;;;;;;;9.45;4.50;;;18.10;66.20;;;;;;4496640;31;20133;-65
2023/01/28 01:15:09;;;;;;;9.65;4.82;;;18.10;66.20;;;;;;4510191;31;20155;-65
2023/01/28 01:17:39;;;;;;;9.32;4.70;;;18.10;66.20;;;;;;4496744;31;20140;-64
2023/01/28 01:20:10;;;;;;;10.48;5.20;;;18.00;66.20;;;;;;4498112;31;20136;-64
2023/01/28 01:22:37;;;;;;;7.53;4.40;;;18.00;66.20;;;;;;4497321;31;20128;-64
2023/01/28 01:25:04;;;;;;;7.32;4.50;;;18.00;66.20;;;;;;4495575;31;20557;-65
2023/01/28 01:27:31;;;;;;;9.25;4.95;;;18.00;66.20;;;;;;4510171;31;20092;-64
2023/01/28 01:29:57;;;;;;;9.57;4.38;;;18.00;66.20;;;;;;4496484;31;20533;-65
2023/01/28 01:32:33;;;;;;;7.70;4.68;;;18.00;66.20;;;;;;4498011;31;20117;-65
2023/01/28 01:35:00;;;;;;;8.75;4.88;;;18.00;66.30;;;;;;4507760;31;20194;-65
2023/01/28 01:37:27;;;;;;;10.10;4.85;;;18.00;66.20;;;;;;4497905;31;20689;-64
2023/01/28 01:39:53;;;;;;;8.57;4.43;;;18.00;66.30;;;;;;4493850;32;20133;-65
2023/01/28 01:42:20;;;;;;;7.57;4.35;;;18.00;66.30;;;;;;4510062;31;20139;-65
2023/01/28 01:45:18;;;;;;;7.38;4.18;;;18.00;66.30;;;;;;4501073;31;20286;-65
2023/01/28 01:47:56;;;;;;;7.45;4.43;;;18.00;66.20;;;;;;4489727;31;20617;-65
2023/01/28 01:50:30;;;;;;;6.85;4.28;;;17.90;67.10;;;;;;4497689;31;20199;-64
2023/01/28 01:53:03;;;;;;;7.50;4.03;;;18.00;66.30;;;;;;4500973;31;20150;-64
2023/01/28 01:55:33;;;;;;;6.90;4.28;;;17.90;66.20;;;;;;4499574;31;20121;-65
2023/01/28 01:58:04;;;;;;;8.27;4.80;;;17.90;66.30;;;;;;4501342;31;20259;-64
2023/01/28 02:00:30;;;;;;;8.55;3.83;;;17.90;66.30;;;;;;4511411;31;20133;-64
2023/01/28 02:02:57;;;;;;;6.97;4.22;;;17.90;66.20;;;;;;4513114;31;20109;-64
2023/01/28 02:05:24;;;;;;;7.55;4.10;;;17.90;66.30;;;;;;4500023;31;20137;-64
2023/01/28 02:08:19;;;;;;;8.00;4.05;;;17.90;66.20;;;;;;4512121;31;20113;-65
2023/01/28 02:10:57;;;;;;;7.53;3.85;;;17.80;66.20;;;;;;4500705;31;20121;-64
2023/01/28 02:13:29;;;;;;;6.32;3.85;;;17.80;66.20;;;;;;4509947;31;20140;-64
2023/01/28 02:15:59;;;;;;;7.00;4.10;;;17.80;66.20;;;;;;4497004;31;20136;-64
2023/01/28 02:18:25;;;;;;;8.90;3.92;;;17.80;66.20;;;;;;4498575;31;20140;-64
2023/01/28 02:21:08;;;;;;;6.53;3.47;;;17.80;66.20;;;;;;4499571;31;20661;-64
2023/01/28 02:24:14;;;;;;;9.73;4.05;;;17.80;66.20;;;;;;4497034;31;20156;-64
2023/01/28 02:26:55;;;;;;;6.68;3.65;;;17.80;66.20;;;;;;4484208;31;20133;-64
2023/01/28 02:29:37;;;;;;;6.72;3.92;;;17.80;66.30;;;;;;4499778;31;20573;-64
2023/01/28 02:32:18;;;;;;;6.38;4.00;;;17.80;66.30;;;;;;4500464;31;20128;-64
2023/01/28 02:34:49;;;;;;;7.10;3.58;;;17.70;66.20;;;;;;4511076;31;20116;-65
2023/01/28 02:37:32;;;;;;;7.50;3.70;;;17.70;66.30;;;;;;4500392;31;20136;-64
2023/01/28 02:40:04;;;;;;;6.80;3.63;;;17.70;66.30;;;;;;4500144;31;20120;-64
2023/01/28 02:42:34;;;;;;;6.75;3.70;;;17.70;66.40;;;;;;4498787;31;20160;-64
2023/01/28 02:45:00;;;;;;;5.32;3.38;;;17.70;66.30;;;;;;4510855;31;20125;-64
2023/01/28 02:50:18;;;;;;;7.38;3.65;;;17.70;66.30;;;;;;4499022;31;20124;-64
2023/01/28 02:55:43;;;;;;;5.82;3.13;;;17.70;66.30;;;;;;4498765;31;20558;-64
2023/01/28 02:58:17;;;;;;;6.95;3.95;;;17.70;66.30;;;;;;4498982;31;20112;-64
2023/01/28 03:00:55;;;;;;;6.38;3.38;;;17.70;66.40;;;;;;4497871;31;20144;-64
2023/01/28 03:03:30;;;;;;;4.88;2.92;;;17.70;66.30;;;;;;4511914;31;20135;-64
2023/01/28 03:06:05;;;;;;;5.88;3.13;;;17.60;66.30;;;;;;4499971;31;20163;-64
2023/01/28 03:36:47;;;;;;;5.85;3.33;;;17.50;66.30;;;;;;4499651;31;20234;-64
2023/01/28 03:39:13;;;;;;;6.22;3.13;;;17.50;66.40;;;;;;4498246;31;20132;-64
2023/01/28 03:41:39;;;;;;;5.03;3.10;;;17.50;66.40;;;;;;4499014;31;20143;-64
2023/01/28 03:46:50;;;;;;;5.82;2.95;;;17.50;66.40;;;;;;4497297;31;20139;-64
2023/01/28 03:49:16;;;;;;;5.00;3.13;;;17.50;66.40;;;;;;4498273;31;20121;-64
2023/01/28 03:51:45;;;;;;;5.22;2.60;;;17.50;66.40;;;;;;4489811;31;20171;-64
2023/01/28 03:54:11;;;;;;;4.53;2.63;;;17.50;66.40;;;;;;4505302;31;20144;-64
2023/01/28 03:56:38;;;;;;;5.50;2.83;;;17.50;66.40;;;;;;4510292;31;20188;-64
2023/01/28 03:59:06;;;;;;;6.60;3.30;;;17.50;66.40;;;;;;4497414;31;20266;-64
2023/01/28 04:01:32;;;;;;;5.07;3.10;;;17.50;66.40;;;;;;4498972;31;20081;-64
2023/01/28 04:03:58;;;;;;;4.32;2.65;;;17.50;66.40;;;;;;4497607;31;20124;-64
2023/01/28 04:06:23;;;;;;;6.03;3.20;;;17.40;66.30;;;;;;4510108;31;20108;-64
2023/01/28 04:08:52;;;;;;;4.70;2.78;;;17.40;66.40;;;;;;4485044;31;21962;-64
2023/01/28 04:11:20;;;;;;;4.75;2.90;;;17.40;66.40;;;;;;4487903;31;20133;-64
2023/01/28 04:13:47;;;;;;;4.25;2.60;;;17.40;66.40;;;;;;4497170;31;20140;-64
2023/01/28 04:16:16;;;;;;;6.13;2.67;;;17.40;66.30;;;;;;4510036;31;20129;-64
2023/01/28 04:18:43;;;;;;;4.35;2.60;;;17.40;66.30;;;;;;4498228;31;20089;-64
2023/01/28 04:21:08;;;;;;;5.05;2.60;;;17.40;66.40;;;;;;4496802;31;20192;-64
2023/01/28 04:23:35;;;;;;;4.20;2.58;;;17.40;66.30;;;;;;4498359;31;20586;-64
2023/01/28 04:26:02;;;;;;;5.38;2.58;;;17.30;66.30;;;;;;4508843;31;20124;-64
2023/01/28 04:28:29;;;;;;;5.07;2.90;;;17.30;66.30;;;;;;4486568;31;20196;-64
2023/01/28 04:30:55;;;;;;;5.18;2.90;;;17.30;66.30;;;;;;4481262;31;20180;-64
2023/01/28 04:33:21;;;;;;;3.92;2.40;;;17.30;66.30;;;;;;4483445;31;20263;-64
2023/01/28 04:35:47;;;;;;;4.28;2.35;;;17.30;66.30;;;;;;4492984;31;20104;-65
2023/01/28 04:38:12;;;;;;;4.78;2.78;;;17.30;66.40;;;;;;4508383;31;20120;-65
2023/01/28 04:40:38;;;;;;;4.00;2.60;;;17.30;66.40;;;;;;4497630;31;20109;-65
2023/01/28 04:43:05;;;;;;;4.30;2.50;;;17.30;66.40;;;;;;4495602;31;20277;-65
2023/01/28 04:45:31;;;;;;;4.03;2.22;;;17.30;66.40;;;;;;4486845;31;20470;-64
2023/01/28 04:47:57;;;;;;;3.55;2.20;;;17.30;66.40;;;;;;4497293;31;20242;-64
2023/01/28 04:50:22;;;;;;;6.40;2.58;;;17.30;66.40;;;;;;4497888;31;20180;-64
2023/01/28 04:52:48;;;;;;;4.40;2.35;;;17.30;66.40;;;;;;4483958;31;20120;-64
2023/01/28 04:55:14;;;;;;;4.15;2.50;;;17.30;66.40;;;;;;4497178;31;20172;-64
2023/01/28 04:57:40;;;;;;;4.60;2.20;;;17.30;66.40;;;;;;4498231;31;20124;-64
2023/01/28 05:00:06;;;;;;;4.45;2.50;;;17.20;66.30;;;;;;4495721;31;20133;-64
2023/01/28 05:02:35;;;;;;;3.63;2.03;;;17.20;66.30;;;;;;4510492;31;20202;-64
2023/01/28 05:05:03;;;;;;;3.40;2.03;;;17.20;66.30;;;;;;4497144;31;20258;-64
2023/01/28 05:07:29;;;;;;;4.15;2.50;;;17.20;66.40;;;;;;4498126;31;20136;-64
2023/01/28 05:09:55;;;;;;;4.97;2.35;;;17.20;66.40;;;;;;4510067;31;20081;-64
2023/01/28 05:12:21;;;;;;;3.05;2.25;;;17.20;66.40;;;;;;4496907;31;20649;-64
2023/01/28 05:14:47;;;;;;;2.95;2.13;;;17.20;66.40;;;;;;4498128;31;20270;-64
2023/01/28 05:17:12;;;;;;;4.25;2.47;;;17.20;66.40;;;;;;4496504;31;20117;-64
2023/01/28 05:19:38;;;;;;;3.88;2.20;;;17.20;66.40;;;;;;4498266;31;20191;-65
2023/01/28 05:22:04;;;;;;;2.95;1.98;;;17.20;66.40;;;;;;4496943;31;20537;-64
2023/01/28 05:24:30;;;;;;;4.47;2.22;;;17.20;66.40;;;;;;4496880;32;20124;-64
2023/01/28 05:26:56;;;;;;;3.35;2.17;;;17.10;66.40;;;;;;4497555;31;20688;-65
2023/01/28 05:29:21;;;;;;;3.65;2.17;;;17.10;66.40;;;;;;4497058;31;20121;-64
2023/01/28 05:31:47;;;;;;;3.75;2.00;;;17.10;66.40;;;;;;4510063;31;20113;-64
2023/01/28 05:34:13;;;;;;;3.63;2.05;;;17.10;66.30;;;;;;4494494;32;20306;-64
2023/01/28 05:36:42;;;;;;;3.80;2.20;;;17.10;66.20;;;;;;4497110;31;20143;-64
2023/01/28 05:39:08;;;;;;;3.38;2.05;;;17.20;66.20;;;;;;4481608;32;20194;-64
2023/01/28 05:41:33;;;;;;;4.35;2.28;;;17.20;66.20;;;;;;4496628;32;20267;-64
2023/01/28 05:44:00;;;;;;;3.53;2.10;;;17.20;66.10;;;;;;4494905;32;20139;-64
2023/01/28 05:46:26;;;;;;;2.88;1.92;;;17.20;66.10;;;;;;4508252;31;20120;-64
2023/01/28 05:48:52;;;;;;;3.83;1.80;;;17.20;66.10;;;;;;4495751;32;20129;-64
2023/01/28 05:51:18;;;;;;;3.38;1.98;;;17.20;66.00;;;;;;4491345;31;20159;-64
2023/01/28 05:53:44;;;;;;;3.58;1.77;;;17.20;65.90;;;;;;4492174;32;20120;-64
2023/01/28 05:56:10;;;;;;;2.80;1.80;;;17.20;65.80;;;;;;4508413;31;20189;-64
2023/01/28 05:58:35;;;;;;;3.08;1.70;;;17.20;65.80;;;;;;4496928;32;20124;-64
2023/01/28 06:01:01;;;;;;;3.13;1.80;;;17.30;65.80;;;;;;4496413;31;20282;-64
2023/01/28 06:03:27;;;;;;;3.70;2.10;;;17.30;65.70;;;;;;4497321;31;20139;-64
2023/01/28 06:05:53;;;;;;;2.70;1.77;;;17.30;65.70;;;;;;4496604;32;20131;-64
2023/01/28 06:08:19;;;;;;;3.28;1.80;;;17.30;65.60;;;;;;4496526;31;20124;-64
2023/01/28 06:10:46;;;;;;;3.85;2.15;;;17.30;65.50;;;;;;4496845;32;20124;-64
2023/01/28 06:13:11;;;;;;;3.30;1.80;;;17.30;65.50;;;;;;4494810;32;20178;-64
2023/01/28 06:15:37;;;;;;;2.97;1.80;;;17.30;65.50;;;;;;4496857;32;20124;-64
2023/01/28 06:18:03;;;;;;;2.75;1.58;;;17.30;65.50;;;;;;4508846;31;20166;-64
2023/01/28 06:20:29;;;;;;;2.75;1.63;;;17.30;65.50;;;;;;4509561;31;20124;-64
2023/01/28 06:22:55;;;;;;;2.30;1.48;;;17.30;65.50;;;;;;4509784;31;20078;-64
2023/01/28 06:25:21;;;;;;;3.47;2.00;;;17.30;65.40;;;;;;4508574;31;20298;-64
2023/01/28 06:27:46;;;;;;;2.53;1.60;;;17.30;65.40;;;;;;4510061;31;20121;-64
2023/01/28 06:30:12;;;;;;;4.13;1.80;;;17.30;65.40;;;;;;4510026;31;20113;-65
2023/01/28 06:32:38;;;;;;;3.65;1.90;;;17.30;65.30;;;;;;4499546;31;20505;-64
2023/01/28 06:35:04;;;;;;;2.90;1.85;;;17.30;65.30;;;;;;4498206;31;20218;-64
2023/01/28 06:37:30;;;;;;;3.17;1.67;;;17.30;65.30;;;;;;4499220;31;20137;-64
2023/01/28 06:39:56;;;;;;;2.53;1.42;;;17.30;65.30;;;;;;4500136;31;20186;-64
2023/01/28 06:42:22;;;;;;;2.78;1.80;;;17.30;65.30;;;;;;4511161;31;20535;-64
2023/01/28 06:44:48;;;;;;;2.25;1.23;;;17.30;65.30;;;;;;4500402;31;20159;-64
2023/01/28 06:47:14;;;;;;;2.42;1.48;;;17.30;65.30;;;;;;4497688;31;20125;-64
2023/01/28 06:49:40;;;;;;;3.05;1.63;;;17.30;65.20;;;;;;4500048;31;20186;-64
2023/01/28 06:52:06;;;;;;;2.65;1.55;;;17.30;65.20;;;;;;4497783;31;20199;-64
2023/01/28 06:54:32;;;;;;;2.13;1.40;;;17.30;65.20;;;;;;4499049;31;20136;-64
2023/01/28 06:56:58;;;;;;;2.85;1.65;;;17.30;65.20;;;;;;4511912;31;20128;-64
2023/01/28 06:59:24;;;;;;;2.60;1.70;;;17.30;65.10;;;;;;4511048;31;20128;-64
2023/01/28 07:01:50;;;;;;;3.00;1.73;;;17.40;65.10;;;;;;4500205;31;20125;-64
2023/01/28 07:04:16;;;;;;;2.65;1.58;;;17.40;65.10;;;;;;4498478;31;20121;-64
2023/01/28 07:06:42;;;;;;;2.58;1.45;;;17.40;65.10;;;;;;4499038;31;20124;-64
2023/01/28 07:09:08;;;;;;;2.75;1.35;;;17.40;65.10;;;;;;4510684;31;20182;-64
2023/01/28 07:11:33;;;;;;;3.08;1.70;;;17.40;65.00;;;;;;4499640;31;20130;-64
2023/01/28 07:14:00;;;;;;;2.10;1.40;;;17.40;65.00;;;;;;4497904;31;20139;-64
2023/01/28 07:16:25;;;;;;;2.60;1.40;;;17.40;65.10;;;;;;4497908;31;20128;-64
2023/01/28 07:18:51;;;;;;;2.50;1.48;;;17.40;65.00;;;;;;4503855;31;20202;-65
2023/01/28 07:21:17;;;;;;;3.67;1.75;;;17.40;64.90;;;;;;4485663;31;20322;-64
2023/01/28 07:23:44;;;;;;;1.90;1.27;;;17.40;64.90;;;;;;4498337;31;20116;-64
2023/01/28 07:26:10;;;;;;;3.83;1.70;;;17.40;64.90;;;;;;4507663;31;20147;-64
2023/01/28 07:28:35;;;;;;;2.45;1.38;;;17.40;64.90;;;;;;4498963;31;20125;-64
2023/01/28 07:31:01;;;;;;;2.55;1.48;;;17.40;65.80;;;;;;4498388;31;20117;-64
2023/01/28 07:33:27;;;;;;;2.10;1.45;;;17.40;64.80;;;;;;4498505;31;20113;-64
2023/01/28 07:35:53;;;;;;;1.90;1.38;;;17.40;64.80;;;;;;4498345;31;20096;-64
2023/01/28 07:38:19;;;;;;;1.95;1.38;;;17.40;64.80;;;;;;4497009;31;20180;-64
2023/01/28 07:40:45;;;;;;;2.30;1.55;;;17.40;64.80;;;;;;4485140;31;20290;-64
2023/01/28 07:43:11;;;;;;;2.05;1.35;;;17.40;64.70;;;;;;4480772;31;20125;-64
2023/01/28 07:45:38;;;;;;;2.92;1.50;;;17.40;64.80;;;;;;4499228;31;20154;-64
2023/01/28 07:48:06;;;;;;;2.05;1.45;;;17.40;64.80;;;;;;4497328;31;20159;-64
2023/01/28 07:50:34;;;;;;;2.03;1.40;;;17.40;64.80;;;;;;4498066;31;20567;-64
2023/01/28 07:53:09;;;;;;;2.55;1.52;;;17.40;64.70;;;;;;4488764;31;20077;-64
2023/01/28 07:55:36;;;;;;;2.20;1.38;;;17.40;64.70;;;;;;4496805;31;20125;-64
2023/01/28 07:58:04;;;;;;;1.90;1.15;;;17.40;64.70;;;;;;4510783;31;20135;-65
2023/01/28 08:00:32;;;;;;;1.48;1.05;;;17.30;64.80;;;;;;4497792;31;20140;-64
2023/01/28 08:03:00;;;;;;;6.38;1.27;;;17.30;65.00;;;;;;4498764;31;20171;-64
2023/01/28 08:05:32;;;;;;;2.13;1.17;;;17.30;65.20;;;;;;4491732;31;20144;-64
2023/01/28 08:07:58;;;;;;;4.00;1.33;;;17.30;65.30;;;;;;4495849;31;20659;-64
2023/01/28 08:10:24;;;;;;;3.30;1.25;;;17.30;65.40;;;;;;4492756;31;20169;-64
2023/01/28 08:12:55;;;;;;;3.55;1.35;;;17.30;65.50;;;;;;4493845;31;20105;-64
2023/01/28 08:15:22;;;;;;;2.50;1.25;;;17.30;65.70;;;;;;4498858;31;20214;-64
2023/01/28 08:17:48;;;;;;;3.40;1.25;;;17.30;65.80;;;;;;4497552;31;20141;-65
2023/01/28 08:20:14;;;;;;;2.58;0.95;;;17.30;65.70;;;;;;4498465;31;20455;-64
2023/01/28 08:22:40;;;;;;;3.75;1.40;;;17.40;65.60;;;;;;4484383;31;20097;-64
2023/01/28 08:25:06;;;;;;;2.28;1.38;;;17.50;65.30;;;;;;4497393;31;20136;-64
2023/01/28 08:27:32;;;;;;;3.47;1.30;;;17.60;65.10;;;;;;4497740;31;20127;-64
2023/01/28 08:29:57;;;;;;;2.42;1.10;;;17.80;64.90;;;;;;4496073;31;20121;-64
2023/01/28 08:32:23;;;;;;;4.72;1.45;;;17.90;64.60;;;;;;4497390;31;20560;-64
2023/01/28 08:34:49;;;;;;;2.78;1.10;;;18.00;64.30;;;;;;4496357;31;20286;-64
2023/01/28 08:37:15;;;;;;;2.70;1.45;;;18.20;64.00;;;;;;4492333;31;20135;-65
2023/01/28 08:39:41;;;;;;;2.17;1.00;;;18.40;63.70;;;;;;4483884;31;20125;-65
2023/01/28 08:42:07;;;;;;;4.88;1.30;;;18.50;63.60;;;;;;4485334;31;20116;-65
2023/01/28 08:44:33;;;;;;;2.42;1.25;;;18.60;63.20;;;;;;4498158;31;20201;-66
2023/01/28 08:47:00;;;;;;;6.43;1.52;;;18.70;63.00;;;;;;4495960;31;20147;-65
2023/01/28 08:49:25;;;;;;;3.22;1.33;;;18.90;62.90;;;;;;4484245;31;20120;-65
2023/01/28 08:51:51;;;;;;;3.55;1.17;;;19.00;62.60;;;;;;4486646;31;20136;-65
2023/01/28 08:54:17;;;;;;;4.03;1.40;;;19.10;62.40;;;;;;4495704;31;20129;-65
2023/01/28 08:56:43;;;;;;;4.38;1.20;;;19.20;62.30;;;;;;4496594;31;20124;-64
2023/01/28 08:59:10;;;;;;;3.15;1.13;;;19.30;62.10;;;;;;4497008;31;20198;-65
2023/01/28 09:01:36;;;;;;;3.58;1.50;;;19.30;62.00;;;;;;4495962;31;20578;-65
2023/01/28 09:04:02;;;;;;;3.83;1.10;;;19.40;62.00;;;;;;4495648;31;20143;-64
2023/01/28 09:06:28;;;;;;;2.80;1.23;;;19.40;62.10;;;;;;4498327;31;20113;-65
2023/01/28 09:08:58;;;;;;;5.13;1.20;;;19.40;62.10;;;;;;4495576;31;20442;-64
2023/01/28 09:11:25;;;;;;;2.30;1.10;;;19.40;62.20;;;;;;4497123;31;20194;-67
2023/01/28 09:13:51;;;;;;;4.78;1.23;;;19.40;62.20;;;;;;4497025;31;20112;-64
2023/01/28 09:16:17;;;;;;;3.72;1.02;;;19.40;62.20;;;;;;4498762;31;20143;-65
2023/01/28 09:18:43;;;;;;;7.32;1.45;;;19.30;62.20;;;;;;4491952;31;20069;-65
2023/01/28 09:21:09;;;;;;;2.35;0.98;;;19.30;62.30;;;;;;4493229;31;20113;-65
2023/01/28 09:23:36;;;;;;;4.20;1.35;;;19.30;62.30;;;;;;4483206;31;20195;-65
2023/01/28 09:26:03;;;;;;;3.55;0.90;;;19.40;62.40;;;;;;4493608;31;20216;-64
2023/01/28 09:28:29;;;;;;;2.75;1.10;;;19.40;62.30;;;;;;4483230;32;20125;-64
2023/01/28 09:31:02;;;;;;;3.20;1.02;;;19.40;62.30;;;;;;4493347;31;20160;-64
2023/01/28 09:33:28;;;;;;;3.38;1.10;;;19.40;62.30;;;;;;4490697;32;20620;-64
2023/01/28 09:35:54;;;;;;;2.72;0.95;;;19.40;62.30;;;;;;4497018;32;20130;-64
2023/01/28 09:38:20;;;;;;;6.55;1.42;;;19.40;62.40;;;;;;4482223;32;20120;-64
2023/01/28 09:40:46;;;;;;;2.35;0.70;;;19.40;62.50;;;;;;4498237;31;20125;-64
2023/01/28 09:43:36;;;;;;;1.85;0.93;;;19.40;62.50;;;;;;4496285;31;20141;-64
2023/01/28 09:46:05;;;;;;;2.95;0.90;;;19.40;62.50;;;;;;4497954;31;20125;-64
2023/01/28 09:48:41;;;;;;;3.20;1.00;;;19.40;62.60;;;;;;4497827;31;20113;-64
2023/01/28 09:51:15;;;;;;;1.38;0.75;;;19.40;62.70;;;;;;4492435;31;20562;-64
2023/01/28 09:53:47;;;;;;;2.03;1.00;;;19.40;62.70;;;;;;4491860;32;20128;-64
2023/01/28 09:56:24;;;;;;;2.05;0.88;;;19.40;62.80;;;;;;4496549;31;20136;-64
2023/01/28 09:58:51;;;;;;;1.67;0.90;;;19.40;62.80;;;;;;4497691;31;20136;-64
2023/01/28 10:01:43;;;;;;;1.73;0.70;;;19.40;62.70;;;;;;4496559;32;20120;-64
2023/01/28 10:04:41;;;;;;;3.05;0.90;;;19.40;62.80;;;;;;4499557;31;20183;-64
2023/01/28 10:07:26;;;;;;;2.00;0.90;;;19.40;62.60;;;;;;4500422;31;20128;-64
2023/01/28 10:09:59;;;;;;;3.08;0.93;;;19.50;62.50;;;;;;4500500;31;20085;-63
2023/01/28 10:12:42;;;;;;;2.88;0.98;;;19.40;62.10;;;;;;4499449;31;20125;-64
2023/01/28 10:15:27;;;;;;;1.80;0.85;;;19.50;62.00;;;;;;4500800;31;20139;-63
2023/01/28 10:18:01;;;;;;;1.65;0.93;;;19.50;61.90;;;;;;4499672;31;20140;-64
2023/01/28 10:20:32;;;;;;;1.55;0.98;;;19.50;61.80;;;;;;4500215;31;20121;-64
2023/01/28 10:23:13;;;;;;;3.15;0.93;;;19.50;61.80;;;;;;4499501;31;20109;-64
2023/01/28 10:25:43;;;;;;;3.10;0.80;;;19.50;61.70;;;;;;4499391;31;20195;-64
2023/01/28 10:28:19;;;;;;;3.65;0.90;;;19.50;61.70;;;;;;4500651;31;20187;-64
2023/01/28 10:30:47;;;;;;;2.67;0.90;;;19.50;61.60;;;;;;4499593;31;20262;-64
2023/01/28 10:33:16;;;;;;;1.95;0.90;;;19.60;61.60;;;;;;4500011;31;20121;-64
2023/01/28 10:35:42;;;;;;;2.25;0.90;;;19.60;61.60;;;;;;4500518;31;20092;-64
2023/01/28 10:38:14;;;;;;;2.83;1.00;;;19.60;61.50;;;;;;4499194;31;20171;-64
2023/01/28 10:40:41;;;;;;;2.78;1.02;;;19.70;61.60;;;;;;4500690;31;20132;-64
2023/01/28 10:43:07;;;;;;;1.80;0.75;;;19.70;61.40;;;;;;4510717;31;20190;-64
2023/01/28 10:46:04;;;;;;;1.67;0.70;;;19.70;61.40;;;;;;4512311;31;20135;-64
2023/01/28 10:48:41;;;;;;;2.70;0.80;;;19.70;61.50;;;;;;4500152;31;20510;-64
2023/01/28 10:51:07;;;;;;;1.98;0.93;;;19.70;61.40;;;;;;4506844;31;20141;-65
2023/01/28 10:53:33;;;;;;;1.10;0.70;;;19.70;61.40;;;;;;4492346;31;20127;-64
2023/01/28 10:56:00;;;;;;;3.38;1.00;;;19.70;61.40;;;;;;4498487;31;20124;-64
2023/01/28 10:58:28;;;;;;;2.25;0.70;;;19.70;61.30;;;;;;4500237;31;20152;-64
2023/01/28 11:00:58;;;;;;;2.30;0.77;;;19.70;61.30;;;;;;4499374;31;20628;-63
2023/01/28 11:03:28;;;;;;;3.78;0.82;;;19.70;61.30;;;;;;4498264;31;20132;-64
2023/01/28 11:05:55;;;;;;;2.03;0.82;;;19.70;61.40;;;;;;4498871;31;20136;-64
2023/01/28 11:08:23;;;;;;;1.65;0.50;;;19.70;61.40;;;;;;4498527;31;20125;-64
2023/01/28 11:10:50;;;;;;;1.85;0.70;;;19.70;61.50;;;;;;4500226;31;20525;-63
2023/01/28 11:13:28;;;;;;;1.00;0.50;;;19.70;61.40;;;;;;4498062;31;20142;-64
2023/01/28 11:16:01;;;;;;;0.98;0.60;;;19.70;61.50;;;;;;4498405;31;20671;-65
2023/01/28 11:18:39;;;;;;;1.45;0.60;;;19.70;61.50;;;;;;4512146;31;20077;-64
2023/01/28 11:21:13;;;;;;;0.82;0.43;;;19.80;61.60;;;;;;4497426;31;20132;-64
2023/01/28 11:23:51;;;;;;;1.98;0.60;;;19.70;61.50;;;;;;4500019;31;20168;-64
2023/01/28 11:26:22;;;;;;;1.85;0.50;;;19.80;61.50;;;;;;4510415;31;20140;-63
2023/01/28 11:28:48;;;;;;;1.58;0.70;;;19.80;61.50;;;;;;4499510;31;20662;-64
2023/01/28 11:31:16;;;;;;;1.65;0.80;;;19.80;61.50;;;;;;4499593;31;20175;-63
2023/01/28 11:33:53;;;;;;;1.67;0.80;;;19.80;61.50;;;;;;4498250;31;20135;-64
2023/01/28 11:36:24;;;;;;;1.92;0.50;;;19.80;61.50;;;;;;4498810;31;20132;-64
2023/01/28 11:39:21;;;;;;;1.65;0.75;;;19.80;61.50;;;;;;4497725;31;20143;-64
2023/01/28 11:41:47;;;;;;;0.82;0.55;;;19.90;61.50;;;;;;4499084;31;20136;-64
2023/01/28 11:44:26;;;;;;;1.25;0.50;;;19.80;61.30;;;;;;4498993;31;20186;-64
2023/01/28 11:47:01;;;;;;;1.50;0.52;;;19.90;61.40;;;;;;4498112;31;20286;-64
2023/01/28 11:49:57;;;;;;;1.63;0.88;;;19.90;61.30;;;;;;4499543;31;20180;-64
2023/01/28 11:52:41;;;;;;;2.65;0.60;;;19.90;61.30;;;;;;4496319;31;20608;-64
2023/01/28 11:55:22;;;;;;;1.83;0.70;;;19.90;61.30;;;;;;4498184;31;20136;-64
2023/01/28 11:58:19;;;;;;;1.92;0.70;;;19.90;61.30;;;;;;4499198;31;20159;-64
2023/01/28 12:01:13;;;;;;;2.72;0.50;;;19.90;61.20;;;;;;4503947;31;20124;-64
2023/01/28 12:04:22;;;;;;;0.82;0.52;;;19.90;61.10;;;;;;4500796;31;20147;-66
2023/01/28 12:07:12;;;;;;;1.65;0.57;;;19.90;61.00;;;;;;4497900;31;20132;-65
2023/01/28 12:09:55;;;;;;;2.90;0.52;;;19.90;60.90;;;;;;4494568;31;20221;-66
2023/01/28 12:13:06;;;;;;;2.22;0.75;;;19.90;60.80;;;;;;4494395;31;20140;-66
2023/01/28 12:16:14;;;;;;;3.05;0.65;;;19.90;60.90;;;;;;4494883;31;20132;-66
2023/01/28 12:19:04;;;;;;;2.42;0.43;;;19.90;60.80;;;;;;4498068;31;20128;-65
2023/01/28 12:21:57;;;;;;;1.98;0.70;;;19.90;60.80;;;;;;4495124;31;20165;-66
2023/01/28 12:24:23;;;;;;;1.17;0.60;;;19.90;60.90;;;;;;4496923;31;20170;-65
2023/01/28 12:27:08;;;;;;;1.10;0.50;;;19.90;60.90;;;;;;4487526;31;20085;-64
2023/01/28 12:29:52;;;;;;;1.90;0.52;;;19.90;61.00;;;;;;4487649;31;20214;-65
2023/01/28 12:32:27;;;;;;;2.65;0.60;;;19.90;61.10;;;;;;4490855;31;20727;-65
2023/01/28 12:34:56;;;;;;;1.05;0.50;;;20.00;61.20;;;;;;4492539;31;20271;-65
2023/01/28 12:37:47;;;;;;;1.70;0.80;;;19.90;61.30;;;;;;4482357;31;20125;-65
2023/01/28 12:40:54;;;;;;;1.27;0.28;;;19.90;61.30;;;;;;4496321;31;20237;-65
2023/01/28 12:43:40;;;;;;;5.57;0.70;;;19.90;61.50;;;;;;4495920;31;20129;-65
2023/01/28 12:46:38;;;;;;;3.95;0.50;;;19.90;61.50;;;;;;4494725;31;20298;-68
2023/01/28 12:49:18;;;;;;;4.30;0.75;;;19.90;61.60;;;;;;4489715;31;20125;-68
2023/01/28 12:51:54;;;;;;;2.00;0.70;;;19.80;61.60;;;;;;4482675;31;20136;-65
2023/01/28 12:55:00;;;;;;;5.15;0.70;;;19.90;61.70;;;;;;4498127;31;20140;-65
2023/01/28 12:57:29;;;;;;;6.40;0.80;;;19.90;61.90;;;;;;4497615;31;20117;-66
2023/01/28 13:00:01;;;;;;;5.82;0.50;;;19.90;62.00;;;;;;4496932;31;20142;-66
2023/01/28 13:02:37;;;;;;;1.98;0.70;;;19.90;62.10;;;;;;4498507;31;20195;-68
2023/01/28 13:05:16;;;;;;;1.52;0.60;;;19.90;62.20;;;;;;4496352;31;20136;-68
2023/01/28 13:07:54;;;;;;;8.18;0.60;;;19.90;62.30;;;;;;4497317;31;20132;-68
2023/01/28 13:10:29;;;;;;;3.05;0.50;;;20.00;62.50;;;;;;4498430;31;20136;-69
2023/01/28 13:12:56;;;;;;;2.03;0.50;;;20.00;62.60;;;;;;4496289;31;20124;-67
2023/01/28 13:15:23;;;;;;;2.42;0.45;;;19.90;62.60;;;;;;4498165;31;20132;-67
2023/01/28 13:18:34;;;;;;;4.57;0.75;;;19.90;62.60;;;;;;4497023;31;20589;-68
2023/01/28 13:21:02;;;;;;;1.77;0.52;;;20.00;62.70;;;;;;4500251;31;20148;-68
2023/01/28 13:23:33;;;;;;;1.38;0.50;;;19.90;62.70;;;;;;4498195;31;20141;-69
2023/01/28 13:26:08;;;;;;;1.45;0.70;;;20.00;62.80;;;;;;4496885;31;20517;-67
2023/01/28 13:28:36;;;;;;;6.57;0.50;;;20.00;62.80;;;;;;4496402;32;20139;-66
2023/01/28 13:31:02;;;;;;;3.05;0.40;;;20.00;62.80;;;;;;4497617;32;20120;-67
2023/01/28 13:33:34;;;;;;;1.02;0.50;;;20.00;62.80;;;;;;4496983;31;20129;-67
2023/01/28 13:36:08;;;;;;;2.20;0.45;;;20.00;62.80;;;;;;4498248;31;20139;-67
2023/01/28 13:38:35;;;;;;;3.28;0.60;;;20.00;62.90;;;;;;4499014;31;20191;-67
2023/01/28 13:41:05;;;;;;;5.47;0.60;;;20.00;62.90;;;;;;4501289;31;20588;-65